sensor_id;sensor_type;location;lat;lon;timestamp;P1;durP1;ratioP1;P2;durP2;ratioP2
66721;SDS011;53633;49.932;10.884;2022-12-07T00:01:03;11.88;;;5.57;;
66721;SDS011;53633;49.932;10.884;2022-12-07T00:03:31;12.98;;;5.60;;
66721;SDS011;53633;49.932;10.884;2022-12-07T00:05:59;14.13;;;5.93;;
66721;SDS011;53633;49.932;10.884;2022-12-07T00:08:27;12.27;;;5.35;;
66721;SDS011;53633;49.932;10.884;2022-12-07T00:10:53;11.15;;;4.55;;
66721;SDS011;53633;49.932;10.884;2022-12-07T00:13:20;12.82;;;5.10;;
66721;SDS011;53633;49.932;10.884;2022-12-07T00:15:47;12.55;;;5.05;;
66721;SDS011;53633;49.932;10.884;2022-12-07T00:18:14;10.77;;;4.57;;
66721;SDS011;53633;49.932;10.884;2022-12-07T00:20:40;13.52;;;5.05;;
66721;SDS011;53633;49.932;10.884;2022-12-07T00:23:08;12.27;;;4.82;;
66721;SDS011;53633;49.932;10.884;2022-12-07T00:25:35;13.18;;;4.80;;
66721;SDS011;53633;49.932;10.884;2022-12-07T00:28:02;12.35;;;4.78;;
66721;SDS011;53633;49.932;10.884;2022-12-07T00:30:29;10.93;;;4.60;;
66721;SDS011;53633;49.932;10.884;2022-12-07T00:32:56;12.98;;;5.22;;
66721;SDS011;53633;49.932;10.884;2022-12-07T00:35:22;12.18;;;5.10;;
66721;SDS011;53633;49.932;10.884;2022-12-07T00:37:49;13.18;;;5.13;;
66721;SDS011;53633;49.932;10.884;2022-12-07T00:40:17;12.65;;;5.43;;
66721;SDS011;53633;49.932;10.884;2022-12-07T00:42:44;13.50;;;5.00;;
66721;SDS011;53633;49.932;10.884;2022-12-07T00:45:11;13.10;;;5.10;;
66721;SDS011;53633;49.932;10.884;2022-12-07T00:47:37;12.00;;;5.15;;
66721;SDS011;53633;49.932;10.884;2022-12-07T00:50:04;13.63;;;5.15;;
66721;SDS011;53633;49.932;10.884;2022-12-07T00:52:32;12.68;;;5.40;;
66721;SDS011;53633;49.932;10.884;2022-12-07T00:54:59;13.77;;;6.03;;
66721;SDS011;53633;49.932;10.884;2022-12-07T00:57:27;15.68;;;5.20;;
66721;SDS011;53633;49.932;10.884;2022-12-07T00:59:53;12.15;;;5.43;;
66721;SDS011;53633;49.932;10.884;2022-12-07T01:02:20;13.60;;;5.72;;
66721;SDS011;53633;49.932;10.884;2022-12-07T01:04:47;12.20;;;4.80;;
66721;SDS011;53633;49.932;10.884;2022-12-07T01:07:14;11.90;;;4.83;;
66721;SDS011;53633;49.932;10.884;2022-12-07T01:09:41;12.60;;;5.15;;
66721;SDS011;53633;49.932;10.884;2022-12-07T01:12:08;12.35;;;4.97;;
66721;SDS011;53633;49.932;10.884;2022-12-07T01:14:36;13.88;;;5.22;;
66721;SDS011;53633;49.932;10.884;2022-12-07T01:17:02;13.48;;;4.95;;
66721;SDS011;53633;49.932;10.884;2022-12-07T01:19:29;13.07;;;5.30;;
66721;SDS011;53633;49.932;10.884;2022-12-07T01:21:56;13.98;;;5.38;;
66721;SDS011;53633;49.932;10.884;2022-12-07T01:24:23;12.23;;;4.97;;
66721;SDS011;53633;49.932;10.884;2022-12-07T01:26:49;14.55;;;5.82;;
66721;SDS011;53633;49.932;10.884;2022-12-07T01:29:16;13.43;;;5.03;;
66721;SDS011;53633;49.932;10.884;2022-12-07T01:31:44;12.83;;;4.80;;
66721;SDS011;53633;49.932;10.884;2022-12-07T01:34:11;13.40;;;5.20;;
66721;SDS011;53633;49.932;10.884;2022-12-07T01:36:38;12.90;;;5.50;;
66721;SDS011;53633;49.932;10.884;2022-12-07T01:39:05;13.48;;;5.85;;
66721;SDS011;53633;49.932;10.884;2022-12-07T01:41:33;15.55;;;5.35;;
66721;SDS011;53633;49.932;10.884;2022-12-07T01:46:50;13.73;;;5.18;;
66721;SDS011;53633;49.932;10.884;2022-12-07T01:49:20;12.65;;;5.32;;
66721;SDS011;53633;49.932;10.884;2022-12-07T01:51:51;13.65;;;5.32;;
66721;SDS011;53633;49.932;10.884;2022-12-07T01:54:20;13.57;;;5.70;;
66721;SDS011;53633;49.932;10.884;2022-12-07T01:56:49;13.90;;;5.53;;
66721;SDS011;53633;49.932;10.884;2022-12-07T01:59:18;13.50;;;5.40;;
66721;SDS011;53633;49.932;10.884;2022-12-07T02:01:50;13.15;;;5.50;;
66721;SDS011;53633;49.932;10.884;2022-12-07T02:04:18;13.82;;;5.82;;
66721;SDS011;53633;49.932;10.884;2022-12-07T02:06:45;13.35;;;5.32;;
66721;SDS011;53633;49.932;10.884;2022-12-07T02:09:13;13.80;;;5.83;;
66721;SDS011;53633;49.932;10.884;2022-12-07T02:11:40;13.80;;;5.50;;
66721;SDS011;53633;49.932;10.884;2022-12-07T02:14:07;14.60;;;5.20;;
66721;SDS011;53633;49.932;10.884;2022-12-07T02:16:35;14.07;;;5.80;;
66721;SDS011;53633;49.932;10.884;2022-12-07T02:19:20;14.82;;;5.70;;
66721;SDS011;53633;49.932;10.884;2022-12-07T02:22:08;15.10;;;6.27;;
66721;SDS011;53633;49.932;10.884;2022-12-07T02:24:52;13.25;;;5.53;;
66721;SDS011;53633;49.932;10.884;2022-12-07T02:30:12;13.85;;;5.38;;
66721;SDS011;53633;49.932;10.884;2022-12-07T02:32:42;13.65;;;5.72;;
66721;SDS011;53633;49.932;10.884;2022-12-07T02:35:17;14.13;;;5.43;;
66721;SDS011;53633;49.932;10.884;2022-12-07T02:37:52;13.90;;;5.70;;
66721;SDS011;53633;49.932;10.884;2022-12-07T02:40:27;17.98;;;5.90;;
66721;SDS011;53633;49.932;10.884;2022-12-07T02:42:58;15.43;;;5.85;;
66721;SDS011;53633;49.932;10.884;2022-12-07T02:45:30;15.07;;;5.78;;
66721;SDS011;53633;49.932;10.884;2022-12-07T02:47:58;14.93;;;6.30;;
66721;SDS011;53633;49.932;10.884;2022-12-07T02:50:27;12.48;;;5.43;;
66721;SDS011;53633;49.932;10.884;2022-12-07T02:52:54;16.42;;;6.43;;
66721;SDS011;53633;49.932;10.884;2022-12-07T02:55:22;16.92;;;5.70;;
66721;SDS011;53633;49.932;10.884;2022-12-07T03:00:48;17.17;;;6.40;;
66721;SDS011;53633;49.932;10.884;2022-12-07T03:03:21;16.50;;;6.00;;
66721;SDS011;53633;49.932;10.884;2022-12-07T03:05:52;16.92;;;6.40;;
66721;SDS011;53633;49.932;10.884;2022-12-07T03:08:37;15.43;;;6.07;;
66721;SDS011;53633;49.932;10.884;2022-12-07T03:11:10;14.63;;;6.30;;
66721;SDS011;53633;49.932;10.884;2022-12-07T03:13:47;15.33;;;6.63;;
66721;SDS011;53633;49.932;10.884;2022-12-07T03:16:18;15.98;;;6.82;;
66721;SDS011;53633;49.932;10.884;2022-12-07T03:18:49;14.85;;;6.43;;
66721;SDS011;53633;49.932;10.884;2022-12-07T03:21:22;15.10;;;5.82;;
66721;SDS011;53633;49.932;10.884;2022-12-07T03:23:51;15.05;;;6.10;;
66721;SDS011;53633;49.932;10.884;2022-12-07T03:26:23;15.60;;;6.23;;
66721;SDS011;53633;49.932;10.884;2022-12-07T03:28:55;15.23;;;5.78;;
66721;SDS011;53633;49.932;10.884;2022-12-07T03:31:28;16.48;;;6.72;;
66721;SDS011;53633;49.932;10.884;2022-12-07T03:33:58;16.02;;;5.90;;
66721;SDS011;53633;49.932;10.884;2022-12-07T03:36:30;13.82;;;6.03;;
66721;SDS011;53633;49.932;10.884;2022-12-07T03:39:03;13.30;;;5.93;;
66721;SDS011;53633;49.932;10.884;2022-12-07T03:41:39;16.92;;;6.68;;
66721;SDS011;53633;49.932;10.884;2022-12-07T03:44:10;17.38;;;6.88;;
66721;SDS011;53633;49.932;10.884;2022-12-07T03:46:42;15.50;;;6.20;;
66721;SDS011;53633;49.932;10.884;2022-12-07T03:49:11;15.13;;;6.47;;
66721;SDS011;53633;49.932;10.884;2022-12-07T03:51:45;18.97;;;6.53;;
66721;SDS011;53633;49.932;10.884;2022-12-07T03:54:18;15.93;;;6.38;;
66721;SDS011;53633;49.932;10.884;2022-12-07T03:56:48;16.02;;;5.88;;
66721;SDS011;53633;49.932;10.884;2022-12-07T03:59:16;17.13;;;6.18;;
66721;SDS011;53633;49.932;10.884;2022-12-07T04:01:51;16.50;;;6.45;;
66721;SDS011;53633;49.932;10.884;2022-12-07T04:04:19;14.50;;;6.17;;
66721;SDS011;53633;49.932;10.884;2022-12-07T04:06:46;17.50;;;6.70;;
66721;SDS011;53633;49.932;10.884;2022-12-07T04:09:12;15.98;;;6.50;;
66721;SDS011;53633;49.932;10.884;2022-12-07T04:11:39;15.63;;;5.82;;
66721;SDS011;53633;49.932;10.884;2022-12-07T04:14:06;15.35;;;6.68;;
66721;SDS011;53633;49.932;10.884;2022-12-07T04:16:32;15.13;;;5.83;;
66721;SDS011;53633;49.932;10.884;2022-12-07T04:19:06;18.00;;;6.60;;
66721;SDS011;53633;49.932;10.884;2022-12-07T04:21:32;15.93;;;6.43;;
66721;SDS011;53633;49.932;10.884;2022-12-07T04:23:59;18.00;;;5.97;;
66721;SDS011;53633;49.932;10.884;2022-12-07T04:26:26;16.63;;;6.85;;
66721;SDS011;53633;49.932;10.884;2022-12-07T04:28:53;15.20;;;6.13;;
66721;SDS011;53633;49.932;10.884;2022-12-07T04:31:19;18.23;;;7.00;;
66721;SDS011;53633;49.932;10.884;2022-12-07T04:33:46;17.27;;;7.20;;
66721;SDS011;53633;49.932;10.884;2022-12-07T04:36:14;15.70;;;6.35;;
66721;SDS011;53633;49.932;10.884;2022-12-07T04:38:41;16.50;;;6.82;;
66721;SDS011;53633;49.932;10.884;2022-12-07T04:41:08;17.40;;;6.90;;
66721;SDS011;53633;49.932;10.884;2022-12-07T04:43:35;16.80;;;7.00;;
66721;SDS011;53633;49.932;10.884;2022-12-07T04:46:02;20.10;;;7.80;;
66721;SDS011;53633;49.932;10.884;2022-12-07T04:48:29;17.60;;;6.82;;
66721;SDS011;53633;49.932;10.884;2022-12-07T04:50:56;15.18;;;5.97;;
66721;SDS011;53633;49.932;10.884;2022-12-07T04:53:24;16.07;;;6.57;;
66721;SDS011;53633;49.932;10.884;2022-12-07T04:55:51;19.00;;;7.65;;
66721;SDS011;53633;49.932;10.884;2022-12-07T04:58:18;17.45;;;7.57;;
66721;SDS011;53633;49.932;10.884;2022-12-07T05:00:44;17.85;;;7.25;;
66721;SDS011;53633;49.932;10.884;2022-12-07T05:03:11;15.65;;;6.53;;
66721;SDS011;53633;49.932;10.884;2022-12-07T05:05:39;17.63;;;6.63;;
66721;SDS011;53633;49.932;10.884;2022-12-07T05:08:06;19.75;;;7.25;;
66721;SDS011;53633;49.932;10.884;2022-12-07T05:10:34;15.90;;;6.78;;
66721;SDS011;53633;49.932;10.884;2022-12-07T05:13:01;17.98;;;6.75;;
66721;SDS011;53633;49.932;10.884;2022-12-07T05:15:28;15.20;;;6.60;;
66721;SDS011;53633;49.932;10.884;2022-12-07T05:17:54;19.30;;;7.10;;
66721;SDS011;53633;49.932;10.884;2022-12-07T05:20:21;18.08;;;6.88;;
66721;SDS011;53633;49.932;10.884;2022-12-07T05:22:48;16.50;;;6.35;;
66721;SDS011;53633;49.932;10.884;2022-12-07T05:25:14;19.88;;;7.50;;
66721;SDS011;53633;49.932;10.884;2022-12-07T05:27:43;20.13;;;7.80;;
66721;SDS011;53633;49.932;10.884;2022-12-07T05:30:10;19.87;;;8.00;;
66721;SDS011;53633;49.932;10.884;2022-12-07T05:32:37;24.67;;;7.50;;
66721;SDS011;53633;49.932;10.884;2022-12-07T05:35:04;18.23;;;6.68;;
66721;SDS011;53633;49.932;10.884;2022-12-07T05:37:31;16.60;;;6.53;;
66721;SDS011;53633;49.932;10.884;2022-12-07T05:39:58;15.63;;;6.15;;
66721;SDS011;53633;49.932;10.884;2022-12-07T05:42:25;18.97;;;7.00;;
66721;SDS011;53633;49.932;10.884;2022-12-07T05:44:53;16.50;;;6.88;;
66721;SDS011;53633;49.932;10.884;2022-12-07T05:47:20;16.27;;;6.70;;
66721;SDS011;53633;49.932;10.884;2022-12-07T05:49:47;15.23;;;6.45;;
66721;SDS011;53633;49.932;10.884;2022-12-07T05:52:13;19.63;;;7.10;;
66721;SDS011;53633;49.932;10.884;2022-12-07T05:54:40;18.57;;;7.10;;
66721;SDS011;53633;49.932;10.884;2022-12-07T05:57:07;21.10;;;7.78;;
66721;SDS011;53633;49.932;10.884;2022-12-07T05:59:34;20.27;;;7.70;;
66721;SDS011;53633;49.932;10.884;2022-12-07T06:02:03;20.80;;;7.85;;
66721;SDS011;53633;49.932;10.884;2022-12-07T06:04:32;17.42;;;7.43;;
66721;SDS011;53633;49.932;10.884;2022-12-07T06:06:59;18.03;;;6.83;;
66721;SDS011;53633;49.932;10.884;2022-12-07T06:09:27;18.73;;;7.57;;
66721;SDS011;53633;49.932;10.884;2022-12-07T06:11:54;16.60;;;7.13;;
66721;SDS011;53633;49.932;10.884;2022-12-07T06:14:21;19.50;;;7.32;;
66721;SDS011;53633;49.932;10.884;2022-12-07T06:16:48;16.75;;;7.30;;
66721;SDS011;53633;49.932;10.884;2022-12-07T06:19:16;16.37;;;6.90;;
66721;SDS011;53633;49.932;10.884;2022-12-07T06:21:43;18.05;;;7.05;;
66721;SDS011;53633;49.932;10.884;2022-12-07T06:24:10;18.90;;;7.57;;
66721;SDS011;53633;49.932;10.884;2022-12-07T06:26:38;19.40;;;7.05;;
66721;SDS011;53633;49.932;10.884;2022-12-07T06:29:05;19.77;;;7.70;;
66721;SDS011;53633;49.932;10.884;2022-12-07T06:31:32;20.53;;;8.07;;
66721;SDS011;53633;49.932;10.884;2022-12-07T06:33:59;24.58;;;9.13;;
66721;SDS011;53633;49.932;10.884;2022-12-07T06:36:27;26.95;;;10.23;;
66721;SDS011;53633;49.932;10.884;2022-12-07T06:38:54;22.73;;;9.13;;
66721;SDS011;53633;49.932;10.884;2022-12-07T06:41:21;20.88;;;8.23;;
66721;SDS011;53633;49.932;10.884;2022-12-07T06:43:48;25.33;;;8.90;;
66721;SDS011;53633;49.932;10.884;2022-12-07T06:46:21;21.17;;;8.43;;
66721;SDS011;53633;49.932;10.884;2022-12-07T06:48:48;23.90;;;9.02;;
66721;SDS011;53633;49.932;10.884;2022-12-07T06:51:15;23.73;;;8.65;;
66721;SDS011;53633;49.932;10.884;2022-12-07T06:53:43;22.02;;;7.75;;
66721;SDS011;53633;49.932;10.884;2022-12-07T06:56:12;23.47;;;8.83;;
66721;SDS011;53633;49.932;10.884;2022-12-07T06:58:39;27.10;;;9.00;;
66721;SDS011;53633;49.932;10.884;2022-12-07T07:01:08;25.02;;;9.32;;
66721;SDS011;53633;49.932;10.884;2022-12-07T07:03:35;23.88;;;8.98;;
66721;SDS011;53633;49.932;10.884;2022-12-07T07:06:02;23.95;;;8.70;;
66721;SDS011;53633;49.932;10.884;2022-12-07T07:08:29;20.80;;;8.07;;
66721;SDS011;53633;49.932;10.884;2022-12-07T07:10:57;18.50;;;7.32;;
66721;SDS011;53633;49.932;10.884;2022-12-07T07:13:24;17.60;;;7.65;;
66721;SDS011;53633;49.932;10.884;2022-12-07T07:15:50;21.15;;;8.70;;
66721;SDS011;53633;49.932;10.884;2022-12-07T07:18:18;20.38;;;8.40;;
66721;SDS011;53633;49.932;10.884;2022-12-07T07:20:45;19.67;;;8.63;;
66721;SDS011;53633;49.932;10.884;2022-12-07T07:23:13;19.13;;;7.65;;
66721;SDS011;53633;49.932;10.884;2022-12-07T07:25:39;20.30;;;8.38;;
66721;SDS011;53633;49.932;10.884;2022-12-07T07:28:08;21.75;;;8.07;;
66721;SDS011;53633;49.932;10.884;2022-12-07T07:30:34;19.73;;;7.55;;
66721;SDS011;53633;49.932;10.884;2022-12-07T07:33:03;21.73;;;8.13;;
66721;SDS011;53633;49.932;10.884;2022-12-07T07:35:30;16.42;;;6.47;;
66721;SDS011;53633;49.932;10.884;2022-12-07T07:38:03;20.67;;;7.32;;
66721;SDS011;53633;49.932;10.884;2022-12-07T07:40:30;14.98;;;6.25;;
66721;SDS011;53633;49.932;10.884;2022-12-07T07:42:57;22.92;;;9.32;;
66721;SDS011;53633;49.932;10.884;2022-12-07T07:45:26;23.67;;;7.97;;
66721;SDS011;53633;49.932;10.884;2022-12-07T07:47:53;18.88;;;7.55;;
66721;SDS011;53633;49.932;10.884;2022-12-07T07:50:20;18.50;;;7.35;;
66721;SDS011;53633;49.932;10.884;2022-12-07T07:52:50;21.40;;;8.00;;
66721;SDS011;53633;49.932;10.884;2022-12-07T07:55:17;17.95;;;7.47;;
66721;SDS011;53633;49.932;10.884;2022-12-07T07:57:44;18.63;;;7.37;;
66721;SDS011;53633;49.932;10.884;2022-12-07T08:00:19;22.77;;;8.40;;
66721;SDS011;53633;49.932;10.884;2022-12-07T08:02:48;20.83;;;7.97;;
66721;SDS011;53633;49.932;10.884;2022-12-07T08:05:15;18.48;;;7.38;;
66721;SDS011;53633;49.932;10.884;2022-12-07T08:07:43;18.70;;;6.55;;
66721;SDS011;53633;49.932;10.884;2022-12-07T08:10:10;19.33;;;7.10;;
66721;SDS011;53633;49.932;10.884;2022-12-07T08:12:40;20.13;;;8.38;;
66721;SDS011;53633;49.932;10.884;2022-12-07T08:15:08;22.20;;;8.55;;
66721;SDS011;53633;49.932;10.884;2022-12-07T08:17:36;17.65;;;7.70;;
66721;SDS011;53633;49.932;10.884;2022-12-07T08:20:04;17.83;;;7.18;;
66721;SDS011;53633;49.932;10.884;2022-12-07T08:22:33;21.13;;;8.20;;
66721;SDS011;53633;49.932;10.884;2022-12-07T08:25:00;19.08;;;7.65;;
66721;SDS011;53633;49.932;10.884;2022-12-07T08:27:27;19.02;;;7.90;;
66721;SDS011;53633;49.932;10.884;2022-12-07T08:29:54;19.40;;;7.13;;
66721;SDS011;53633;49.932;10.884;2022-12-07T08:32:20;16.35;;;6.78;;
66721;SDS011;53633;49.932;10.884;2022-12-07T08:34:47;18.13;;;7.30;;
66721;SDS011;53633;49.932;10.884;2022-12-07T08:37:15;18.67;;;7.45;;
66721;SDS011;53633;49.932;10.884;2022-12-07T08:39:42;19.20;;;7.50;;
66721;SDS011;53633;49.932;10.884;2022-12-07T08:42:09;19.20;;;6.90;;
66721;SDS011;53633;49.932;10.884;2022-12-07T08:44:35;19.90;;;7.25;;
66721;SDS011;53633;49.932;10.884;2022-12-07T08:47:02;18.42;;;7.78;;
66721;SDS011;53633;49.932;10.884;2022-12-07T08:49:31;22.58;;;7.40;;
66721;SDS011;53633;49.932;10.884;2022-12-07T08:52:01;17.15;;;7.85;;
66721;SDS011;53633;49.932;10.884;2022-12-07T08:54:32;17.38;;;7.45;;
66721;SDS011;53633;49.932;10.884;2022-12-07T08:57:01;20.33;;;8.23;;
66721;SDS011;53633;49.932;10.884;2022-12-07T08:59:29;22.87;;;7.73;;
66721;SDS011;53633;49.932;10.884;2022-12-07T09:01:56;18.73;;;7.00;;
66721;SDS011;53633;49.932;10.884;2022-12-07T09:04:24;19.55;;;8.20;;
66721;SDS011;53633;49.932;10.884;2022-12-07T09:06:50;18.02;;;6.93;;
66721;SDS011;53633;49.932;10.884;2022-12-07T09:09:17;22.70;;;7.97;;
66721;SDS011;53633;49.932;10.884;2022-12-07T09:11:45;21.83;;;8.60;;
66721;SDS011;53633;49.932;10.884;2022-12-07T09:14:12;20.92;;;8.63;;
66721;SDS011;53633;49.932;10.884;2022-12-07T09:16:43;20.42;;;7.90;;
66721;SDS011;53633;49.932;10.884;2022-12-07T09:19:10;20.00;;;8.00;;
66721;SDS011;53633;49.932;10.884;2022-12-07T09:21:37;20.65;;;7.88;;
66721;SDS011;53633;49.932;10.884;2022-12-07T09:24:04;21.10;;;7.67;;
66721;SDS011;53633;49.932;10.884;2022-12-07T09:26:31;23.45;;;10.00;;
66721;SDS011;53633;49.932;10.884;2022-12-07T09:29:00;26.23;;;10.15;;
66721;SDS011;53633;49.932;10.884;2022-12-07T09:31:26;19.30;;;8.00;;
66721;SDS011;53633;49.932;10.884;2022-12-07T09:33:54;17.98;;;7.47;;
66721;SDS011;53633;49.932;10.884;2022-12-07T09:36:20;16.30;;;6.73;;
66721;SDS011;53633;49.932;10.884;2022-12-07T09:38:47;17.25;;;7.07;;
66721;SDS011;53633;49.932;10.884;2022-12-07T09:41:14;19.13;;;8.07;;
66721;SDS011;53633;49.932;10.884;2022-12-07T09:43:41;17.63;;;7.07;;
66721;SDS011;53633;49.932;10.884;2022-12-07T09:46:09;17.63;;;6.82;;
66721;SDS011;53633;49.932;10.884;2022-12-07T09:48:41;18.37;;;7.40;;
66721;SDS011;53633;49.932;10.884;2022-12-07T09:51:12;16.58;;;7.55;;
66721;SDS011;53633;49.932;10.884;2022-12-07T09:53:49;19.33;;;7.38;;
66721;SDS011;53633;49.932;10.884;2022-12-07T09:56:19;18.05;;;7.10;;
66721;SDS011;53633;49.932;10.884;2022-12-07T09:58:46;19.30;;;7.00;;
66721;SDS011;53633;49.932;10.884;2022-12-07T10:01:21;17.43;;;7.13;;
66721;SDS011;53633;49.932;10.884;2022-12-07T10:03:48;18.55;;;7.72;;
66721;SDS011;53633;49.932;10.884;2022-12-07T10:06:17;20.73;;;8.30;;
66721;SDS011;53633;49.932;10.884;2022-12-07T10:08:44;16.63;;;6.80;;
66721;SDS011;53633;49.932;10.884;2022-12-07T10:11:11;16.05;;;6.60;;
66721;SDS011;53633;49.932;10.884;2022-12-07T10:13:46;18.70;;;7.70;;
66721;SDS011;53633;49.932;10.884;2022-12-07T10:16:31;17.60;;;7.63;;
66721;SDS011;53633;49.932;10.884;2022-12-07T10:19:17;18.05;;;6.95;;
66721;SDS011;53633;49.932;10.884;2022-12-07T10:21:58;19.63;;;8.50;;
66721;SDS011;53633;49.932;10.884;2022-12-07T10:24:26;19.90;;;7.47;;
66721;SDS011;53633;49.932;10.884;2022-12-07T10:26:53;17.52;;;7.07;;
66721;SDS011;53633;49.932;10.884;2022-12-07T10:29:23;18.20;;;7.38;;
66721;SDS011;53633;49.932;10.884;2022-12-07T10:31:55;16.73;;;6.72;;
66721;SDS011;53633;49.932;10.884;2022-12-07T10:34:25;14.35;;;6.32;;
66721;SDS011;53633;49.932;10.884;2022-12-07T10:36:53;18.00;;;8.10;;
66721;SDS011;53633;49.932;10.884;2022-12-07T10:39:40;20.73;;;8.90;;
66721;SDS011;53633;49.932;10.884;2022-12-07T10:42:15;20.55;;;8.13;;
66721;SDS011;53633;49.932;10.884;2022-12-07T10:44:44;19.52;;;7.72;;
66721;SDS011;53633;49.932;10.884;2022-12-07T10:53:15;17.40;;;7.22;;
66721;SDS011;53633;49.932;10.884;2022-12-07T10:55:56;24.20;;;8.75;;
66721;SDS011;53633;49.932;10.884;2022-12-07T10:58:36;21.88;;;9.48;;
66721;SDS011;53633;49.932;10.884;2022-12-07T11:01:15;19.13;;;8.07;;
66721;SDS011;53633;49.932;10.884;2022-12-07T11:04:06;18.30;;;7.65;;
66721;SDS011;53633;49.932;10.884;2022-12-07T11:06:46;16.20;;;7.32;;
66721;SDS011;53633;49.932;10.884;2022-12-07T11:12:36;18.08;;;7.90;;
66721;SDS011;53633;49.932;10.884;2022-12-07T11:15:20;20.02;;;8.57;;
66721;SDS011;53633;49.932;10.884;2022-12-07T11:17:52;20.90;;;8.60;;
66721;SDS011;53633;49.932;10.884;2022-12-07T11:20:33;16.25;;;7.13;;
66721;SDS011;53633;49.932;10.884;2022-12-07T11:23:09;15.50;;;7.13;;
66721;SDS011;53633;49.932;10.884;2022-12-07T11:25:43;16.00;;;7.90;;
66721;SDS011;53633;49.932;10.884;2022-12-07T11:28:19;17.60;;;7.63;;
66721;SDS011;53633;49.932;10.884;2022-12-07T11:31:00;15.20;;;6.80;;
66721;SDS011;53633;49.932;10.884;2022-12-07T11:33:41;14.05;;;6.07;;
66721;SDS011;53633;49.932;10.884;2022-12-07T11:36:17;16.48;;;6.53;;
66721;SDS011;53633;49.932;10.884;2022-12-07T11:38:58;17.15;;;7.18;;
66721;SDS011;53633;49.932;10.884;2022-12-07T11:41:28;15.70;;;6.07;;
66721;SDS011;53633;49.932;10.884;2022-12-07T11:44:01;16.45;;;6.50;;
66721;SDS011;53633;49.932;10.884;2022-12-07T11:46:37;16.40;;;6.82;;
66721;SDS011;53633;49.932;10.884;2022-12-07T11:49:12;16.80;;;7.63;;
66721;SDS011;53633;49.932;10.884;2022-12-07T11:51:46;17.10;;;8.20;;
66721;SDS011;53633;49.932;10.884;2022-12-07T11:54:15;19.10;;;7.78;;
66721;SDS011;53633;49.932;10.884;2022-12-07T11:56:46;16.40;;;6.97;;
66721;SDS011;53633;49.932;10.884;2022-12-07T11:59:17;15.65;;;7.05;;
66721;SDS011;53633;49.932;10.884;2022-12-07T12:01:51;16.00;;;6.60;;
66721;SDS011;53633;49.932;10.884;2022-12-07T12:04:29;20.50;;;8.40;;
66721;SDS011;53633;49.932;10.884;2022-12-07T12:07:01;19.42;;;8.52;;
66721;SDS011;53633;49.932;10.884;2022-12-07T12:09:52;16.70;;;7.10;;
66721;SDS011;53633;49.932;10.884;2022-12-07T12:12:27;16.20;;;6.60;;
66721;SDS011;53633;49.932;10.884;2022-12-07T12:15:44;17.50;;;7.25;;
66721;SDS011;53633;49.932;10.884;2022-12-07T12:18:26;20.05;;;8.70;;
66721;SDS011;53633;49.932;10.884;2022-12-07T12:21:06;18.33;;;7.97;;
66721;SDS011;53633;49.932;10.884;2022-12-07T12:23:39;16.17;;;7.00;;
66721;SDS011;53633;49.932;10.884;2022-12-07T12:26:13;17.77;;;8.40;;
66721;SDS011;53633;49.932;10.884;2022-12-07T12:28:49;17.80;;;6.93;;
66721;SDS011;53633;49.932;10.884;2022-12-07T12:31:30;17.95;;;7.20;;
66721;SDS011;53633;49.932;10.884;2022-12-07T12:34:03;16.00;;;6.32;;
66721;SDS011;53633;49.932;10.884;2022-12-07T12:36:55;15.63;;;6.43;;
66721;SDS011;53633;49.932;10.884;2022-12-07T12:39:23;12.88;;;5.93;;
66721;SDS011;53633;49.932;10.884;2022-12-07T12:41:59;15.48;;;5.72;;
66721;SDS011;53633;49.932;10.884;2022-12-07T12:47:38;15.65;;;5.57;;
66721;SDS011;53633;49.932;10.884;2022-12-07T12:50:19;12.52;;;5.50;;
66721;SDS011;53633;49.932;10.884;2022-12-07T12:52:51;15.02;;;5.65;;
66721;SDS011;53633;49.932;10.884;2022-12-07T12:58:39;16.15;;;6.32;;
66721;SDS011;53633;49.932;10.884;2022-12-07T13:04:25;15.68;;;6.45;;
66721;SDS011;53633;49.932;10.884;2022-12-07T13:10:25;14.55;;;5.60;;
66721;SDS011;53633;49.932;10.884;2022-12-07T13:25:18;12.38;;;5.00;;
66721;SDS011;53633;49.932;10.884;2022-12-07T13:27:50;11.65;;;4.65;;
66721;SDS011;53633;49.932;10.884;2022-12-07T13:30:23;13.05;;;5.82;;
66721;SDS011;53633;49.932;10.884;2022-12-07T13:32:54;13.68;;;5.38;;
66721;SDS011;53633;49.932;10.884;2022-12-07T13:35:31;13.52;;;5.63;;
66721;SDS011;53633;49.932;10.884;2022-12-07T13:38:04;12.73;;;4.15;;
66721;SDS011;53633;49.932;10.884;2022-12-07T13:40:41;9.40;;;3.85;;
66721;SDS011;53633;49.932;10.884;2022-12-07T13:43:12;9.35;;;4.13;;
66721;SDS011;53633;49.932;10.884;2022-12-07T13:45:42;10.02;;;3.40;;
66721;SDS011;53633;49.932;10.884;2022-12-07T13:48:10;9.93;;;3.40;;
66721;SDS011;53633;49.932;10.884;2022-12-07T13:50:48;10.02;;;3.97;;
66721;SDS011;53633;49.932;10.884;2022-12-07T13:53:19;11.85;;;5.53;;
66721;SDS011;53633;49.932;10.884;2022-12-07T13:55:46;12.57;;;5.85;;
66721;SDS011;53633;49.932;10.884;2022-12-07T13:58:19;14.23;;;6.38;;
66721;SDS011;53633;49.932;10.884;2022-12-07T14:00:48;20.10;;;10.35;;
66721;SDS011;53633;49.932;10.884;2022-12-07T14:03:27;19.27;;;10.07;;
66721;SDS011;53633;49.932;10.884;2022-12-07T14:06:03;17.33;;;8.55;;
66721;SDS011;53633;49.932;10.884;2022-12-07T14:08:32;13.23;;;6.85;;
66721;SDS011;53633;49.932;10.884;2022-12-07T14:10:59;19.20;;;8.88;;
66721;SDS011;53633;49.932;10.884;2022-12-07T14:13:29;19.88;;;11.27;;
66721;SDS011;53633;49.932;10.884;2022-12-07T14:15:58;22.63;;;11.60;;
66721;SDS011;53633;49.932;10.884;2022-12-07T14:18:34;19.05;;;10.15;;
66721;SDS011;53633;49.932;10.884;2022-12-07T14:21:04;15.40;;;6.85;;
66721;SDS011;53633;49.932;10.884;2022-12-07T14:23:32;15.43;;;7.25;;
66721;SDS011;53633;49.932;10.884;2022-12-07T14:26:06;17.38;;;7.75;;
66721;SDS011;53633;49.932;10.884;2022-12-07T14:28:37;17.48;;;7.68;;
66721;SDS011;53633;49.932;10.884;2022-12-07T14:31:07;17.88;;;7.53;;
66721;SDS011;53633;49.932;10.884;2022-12-07T14:33:51;20.80;;;7.60;;
66721;SDS011;53633;49.932;10.884;2022-12-07T14:36:18;14.18;;;5.80;;
66721;SDS011;53633;49.932;10.884;2022-12-07T14:38:44;14.95;;;6.65;;
66721;SDS011;53633;49.932;10.884;2022-12-07T14:41:12;9.90;;;3.50;;
66721;SDS011;53633;49.932;10.884;2022-12-07T14:43:41;7.63;;;2.40;;
66721;SDS011;53633;49.932;10.884;2022-12-07T14:46:29;6.63;;;1.95;;
66721;SDS011;53633;49.932;10.884;2022-12-07T14:48:56;7.40;;;2.42;;
66721;SDS011;53633;49.932;10.884;2022-12-07T14:51:46;8.63;;;2.67;;
66721;SDS011;53633;49.932;10.884;2022-12-07T14:54:33;9.05;;;2.95;;
66721;SDS011;53633;49.932;10.884;2022-12-07T14:57:00;9.63;;;3.20;;
66721;SDS011;53633;49.932;10.884;2022-12-07T14:59:26;10.80;;;4.30;;
66721;SDS011;53633;49.932;10.884;2022-12-07T15:01:54;10.20;;;4.10;;
66721;SDS011;53633;49.932;10.884;2022-12-07T15:04:25;15.67;;;6.60;;
66721;SDS011;53633;49.932;10.884;2022-12-07T15:06:55;12.88;;;5.88;;
66721;SDS011;53633;49.932;10.884;2022-12-07T15:09:22;13.77;;;5.97;;
66721;SDS011;53633;49.932;10.884;2022-12-07T15:11:49;13.65;;;5.50;;
66721;SDS011;53633;49.932;10.884;2022-12-07T15:14:16;22.40;;;10.80;;
66721;SDS011;53633;49.932;10.884;2022-12-07T15:16:43;19.97;;;9.57;;
66721;SDS011;53633;49.932;10.884;2022-12-07T15:19:34;16.10;;;7.75;;
66721;SDS011;53633;49.932;10.884;2022-12-07T15:22:01;12.38;;;5.30;;